createdAt,value
2023-02-19T00:01:13.842Z,7.53
2023-02-19T00:03:40.492Z,6.40
2023-02-19T00:06:08.357Z,6.90
2023-02-19T00:08:35.254Z,7.67
2023-02-19T00:11:02.698Z,6.93
2023-02-19T00:13:29.241Z,7.47
2023-02-19T00:15:56.530Z,8.03
2023-02-19T00:18:23.538Z,8.07
2023-02-19T00:20:49.966Z,7.60
2023-02-19T00:23:16.348Z,7.37
2023-02-19T00:25:42.695Z,7.20
2023-02-19T00:28:09.035Z,6.83
2023-02-19T00:30:35.351Z,6.93
2023-02-19T00:33:01.655Z,7.10
2023-02-19T00:35:28.010Z,6.97
2023-02-19T00:37:54.432Z,7.17
2023-02-19T00:40:20.927Z,6.83
2023-02-19T00:42:47.260Z,6.50
2023-02-19T00:45:13.699Z,7.77
2023-02-19T00:47:40.021Z,6.50
2023-02-19T00:50:06.442Z,7.20
2023-02-19T00:52:32.819Z,7.23
2023-02-19T00:54:59.157Z,7.53
2023-02-19T00:57:25.542Z,7.37
2023-02-19T00:59:51.908Z,7.50
2023-02-19T01:02:18.512Z,7.27
2023-02-19T01:04:44.954Z,6.90
2023-02-19T01:07:11.381Z,6.40
2023-02-19T01:09:38.166Z,6.13
2023-02-19T01:12:05.330Z,5.77
2023-02-19T01:14:31.791Z,6.90
2023-02-19T01:16:58.093Z,5.60
2023-02-19T01:19:24.501Z,6.70
2023-02-19T01:21:50.920Z,35.00
2023-02-19T01:24:17.345Z,6.20
2023-02-19T01:26:43.725Z,5.67
2023-02-19T01:29:10.100Z,5.90
2023-02-19T01:31:36.752Z,5.87
2023-02-19T01:34:03.986Z,5.80
2023-02-19T01:36:32.404Z,6.57
2023-02-19T01:39:04.909Z,6.00
2023-02-19T01:41:37.895Z,6.87
2023-02-19T01:44:27.930Z,6.77
2023-02-19T01:46:57.454Z,6.40
2023-02-19T01:49:26.656Z,6.10
2023-02-19T01:51:56.211Z,5.77
2023-02-19T01:54:23.226Z,6.53
2023-02-19T01:56:49.987Z,7.03
2023-02-19T01:59:16.735Z,6.03
2023-02-19T02:01:43.217Z,6.90
2023-02-19T02:04:13.051Z,7.13
2023-02-19T02:06:43.075Z,7.57
2023-02-19T02:09:28.215Z,6.20
2023-02-19T02:11:54.622Z,6.60
2023-02-19T02:14:24.125Z,6.93
2023-02-19T02:16:55.221Z,7.43
2023-02-19T02:19:42.056Z,6.78
2023-02-19T02:22:08.620Z,7.80
2023-02-19T02:24:59.342Z,6.67
2023-02-19T02:27:44.793Z,8.02
2023-02-19T02:30:30.223Z,8.13
2023-02-19T02:33:15.134Z,8.03
2023-02-19T02:35:46.267Z,8.10
2023-02-19T02:38:13.431Z,8.07
2023-02-19T02:40:42.126Z,8.30
2023-02-19T02:43:08.633Z,8.00
2023-02-19T02:45:35.076Z,8.10
2023-02-19T02:48:10.352Z,8.10
2023-02-19T02:50:42.827Z,7.63
2023-02-19T02:53:33.172Z,6.87
2023-02-19T02:56:00.498Z,7.70
2023-02-19T02:58:27.771Z,7.00
2023-02-19T03:01:21.208Z,8.17
2023-02-19T03:03:50.846Z,7.57
2023-02-19T03:06:20.088Z,7.70
2023-02-19T03:08:54.409Z,6.77
2023-02-19T03:11:39.842Z,7.33
2023-02-19T03:14:24.682Z,7.80
2023-02-19T03:17:09.928Z,9.10
2023-02-19T03:19:40.844Z,7.50
2023-02-19T03:22:14.388Z,6.47
2023-02-19T03:25:05.977Z,6.50
2023-02-19T03:27:33.576Z,6.87
2023-02-19T03:30:02.894Z,6.90
2023-02-19T03:32:36.503Z,7.17
2023-02-19T03:35:22.285Z,7.47
2023-02-19T03:37:51.686Z,7.50
2023-02-19T03:40:18.088Z,6.60
2023-02-19T03:42:56.801Z,6.93
2023-02-19T03:45:32.795Z,7.07
2023-02-19T03:48:14.653Z,8.60
2023-02-19T03:51:00.102Z,7.70
2023-02-19T03:53:46.739Z,6.90
2023-02-19T03:56:33.837Z,6.43
2023-02-19T03:59:08.445Z,7.43
2023-02-19T04:01:43.317Z,7.93
2023-02-19T04:04:25.572Z,7.17
2023-02-19T04:06:55.539Z,7.10
2023-02-19T04:09:22.904Z,6.63
2023-02-19T04:11:50.550Z,6.43
2023-02-19T04:14:35.887Z,6.67
2023-02-19T04:17:05.221Z,6.60
2023-02-19T04:19:33.514Z,5.90
2023-02-19T04:22:00.733Z,5.70
2023-02-19T04:24:50.496Z,5.43
2023-02-19T04:27:17.224Z,5.67
2023-02-19T04:29:44.024Z,6.17
2023-02-19T04:32:11.030Z,7.03
2023-02-19T04:34:37.626Z,6.90
2023-02-19T04:37:04.281Z,8.27
2023-02-19T04:39:30.778Z,8.50
2023-02-19T04:41:57.206Z,8.87
2023-02-19T04:44:23.519Z,7.10
2023-02-19T04:46:49.850Z,6.23
2023-02-19T04:49:16.239Z,31.43
2023-02-19T04:51:42.779Z,7.27
2023-02-19T04:54:09.329Z,7.73
2023-02-19T04:56:35.800Z,9.37
2023-02-19T04:59:02.124Z,7.37
2023-02-19T05:01:28.706Z,7.13
2023-02-19T05:03:55.124Z,6.63
2023-02-19T05:06:21.454Z,6.70
2023-02-19T05:08:47.847Z,6.83
2023-02-19T05:11:14.418Z,6.90
2023-02-19T05:13:40.933Z,7.37
2023-02-19T05:16:09.934Z,7.20
2023-02-19T05:18:36.393Z,7.60
2023-02-19T05:21:02.790Z,7.70
2023-02-19T05:23:29.165Z,7.53
2023-02-19T05:25:55.725Z,7.37
2023-02-19T05:28:28.479Z,7.30
2023-02-19T05:30:55.655Z,7.43
2023-02-19T05:33:22.816Z,7.13
2023-02-19T05:35:50.632Z,7.30
2023-02-19T05:38:17.185Z,7.47
2023-02-19T05:40:44.403Z,7.53
2023-02-19T05:43:11.013Z,7.83
2023-02-19T05:45:37.625Z,8.67
2023-02-19T05:48:04.530Z,9.67
2023-02-19T05:50:34.390Z,9.30
2023-02-19T05:53:01.515Z,8.80
2023-02-19T05:55:28.524Z,9.07
2023-02-19T05:57:54.890Z,9.40
2023-02-19T06:00:21.444Z,8.03
2023-02-19T06:02:48.185Z,7.33
2023-02-19T06:05:14.828Z,8.90
2023-02-19T06:07:42.761Z,8.60
2023-02-19T06:10:10.106Z,8.17
2023-02-19T06:12:36.771Z,7.90
2023-02-19T06:15:04.729Z,7.77
2023-02-19T06:17:31.366Z,7.27
2023-02-19T06:19:57.858Z,8.83
2023-02-19T06:22:24.350Z,8.20
2023-02-19T06:24:50.753Z,8.40
2023-02-19T06:27:17.093Z,8.43
2023-02-19T06:29:43.489Z,7.87
2023-02-19T06:32:10.003Z,16.33
2023-02-19T06:34:36.769Z,14.30
2023-02-19T06:37:04.235Z,14.03
2023-02-19T06:39:30.597Z,13.93
2023-02-19T06:42:00.132Z,13.20
2023-02-19T06:44:26.548Z,11.57
2023-02-19T06:46:54.725Z,10.73
2023-02-19T06:49:21.120Z,9.33
2023-02-19T06:51:47.515Z,8.93
2023-02-19T06:54:13.861Z,9.30
2023-02-19T06:56:41.178Z,9.40
2023-02-19T06:59:08.835Z,10.87
2023-02-19T07:01:35.879Z,7.57
2023-02-19T07:04:03.000Z,6.97
2023-02-19T07:06:29.598Z,7.50
2023-02-19T07:08:56.760Z,6.53
2023-02-19T07:11:23.398Z,6.63
2023-02-19T07:13:59.638Z,6.77
2023-02-19T07:16:26.337Z,7.30
2023-02-19T07:18:52.920Z,5.67
2023-02-19T07:21:19.588Z,6.50
2023-02-19T07:23:46.023Z,6.10
2023-02-19T07:26:13.797Z,6.10
2023-02-19T07:28:44.012Z,6.30
2023-02-19T07:31:11.121Z,6.13
2023-02-19T07:33:37.962Z,5.45
2023-02-19T07:36:06.748Z,5.60
2023-02-19T07:38:33.184Z,4.87
2023-02-19T07:41:01.095Z,5.32
2023-02-19T07:43:28.631Z,5.13
2023-02-19T07:45:55.160Z,10.48
2023-02-19T07:48:21.799Z,8.88
2023-02-19T07:50:51.912Z,8.87
2023-02-19T07:53:18.517Z,9.03
2023-02-19T07:55:44.909Z,7.87
2023-02-19T07:58:11.247Z,9.03
2023-02-19T08:00:37.954Z,7.97
2023-02-19T08:03:04.327Z,8.60
2023-02-19T08:05:31.952Z,8.90
2023-02-19T08:07:59.097Z,9.53
2023-02-19T08:10:44.333Z,10.17
2023-02-19T08:13:22.379Z,10.80
2023-02-19T08:15:53.253Z,10.27
2023-02-19T08:18:21.116Z,11.68
2023-02-19T08:20:47.878Z,12.47
2023-02-19T08:23:14.577Z,12.13
2023-02-19T08:25:41.857Z,9.97
2023-02-19T08:28:09.640Z,9.68
2023-02-19T08:30:38.193Z,9.07
2023-02-19T08:33:06.140Z,9.07
2023-02-19T08:35:35.309Z,8.32
2023-02-19T08:38:01.835Z,8.43
2023-02-19T08:40:28.274Z,8.40
2023-02-19T08:42:54.652Z,8.38
2023-02-19T08:45:21.291Z,8.38
2023-02-19T08:47:47.707Z,7.32
2023-02-19T08:50:14.037Z,7.47
2023-02-19T08:52:40.396Z,6.03
2023-02-19T08:55:06.918Z,5.60
2023-02-19T08:57:35.299Z,4.20
2023-02-19T09:00:01.669Z,3.92
2023-02-19T09:02:34.645Z,5.97
2023-02-19T09:05:00.986Z,4.60
2023-02-19T09:07:27.745Z,4.60
2023-02-19T09:09:54.343Z,4.53
2023-02-19T09:12:20.865Z,4.28
2023-02-19T09:14:47.383Z,3.47
2023-02-19T09:17:13.804Z,3.45
2023-02-19T09:19:40.234Z,2.83
2023-02-19T09:22:06.647Z,3.03
2023-02-19T09:24:33.104Z,2.50
2023-02-19T09:26:59.568Z,2.47
2023-02-19T09:29:26.593Z,3.00
2023-02-19T09:31:58.126Z,3.00
2023-02-19T09:34:25.365Z,2.50
2023-02-19T09:36:52.142Z,2.38
2023-02-19T09:39:18.965Z,2.22
2023-02-19T09:41:58.727Z,2.55
2023-02-19T09:44:34.029Z,2.35
2023-02-19T09:47:01.881Z,2.80
2023-02-19T09:49:36.391Z,2.42
2023-02-19T09:52:13.207Z,2.70
2023-02-19T09:54:40.551Z,2.65
2023-02-19T09:57:12.466Z,2.95
2023-02-19T09:59:46.621Z,2.65
2023-02-19T10:02:13.027Z,2.55
2023-02-19T10:04:43.644Z,2.50
2023-02-19T10:07:17.989Z,2.65
2023-02-19T10:09:51.062Z,2.40
2023-02-19T10:12:26.429Z,2.60
2023-02-19T10:14:55.554Z,2.55
2023-02-19T10:17:23.702Z,2.53
2023-02-19T10:19:50.731Z,2.35
2023-02-19T10:22:17.575Z,2.30
2023-02-19T10:24:45.612Z,2.30
2023-02-19T10:27:15.048Z,2.13
2023-02-19T10:29:45.051Z,2.00
2023-02-19T10:32:14.217Z,2.00
2023-02-19T10:34:40.642Z,1.83
2023-02-19T10:37:11.090Z,2.47
2023-02-19T10:39:47.760Z,1.73
2023-02-19T10:42:18.872Z,1.95
2023-02-19T10:44:47.250Z,2.17
2023-02-19T10:47:22.116Z,2.00
2023-02-19T10:49:49.355Z,2.08
2023-02-19T10:52:18.853Z,2.08
2023-02-19T10:54:46.559Z,1.70
2023-02-19T10:57:15.870Z,2.00
2023-02-19T11:00:08.626Z,2.10
2023-02-19T11:02:35.119Z,2.08
2023-02-19T11:05:02.998Z,1.90
2023-02-19T11:07:29.573Z,1.85
2023-02-19T11:09:56.523Z,1.95
2023-02-19T11:12:26.873Z,1.92
2023-02-19T11:14:53.344Z,1.83
2023-02-19T11:17:22.852Z,1.90
2023-02-19T11:19:51.547Z,2.17
2023-02-19T11:22:21.051Z,1.90
2023-02-19T11:24:48.880Z,1.70
2023-02-19T11:27:19.157Z,2.00
2023-02-19T11:29:45.555Z,1.90
2023-02-19T11:32:24.225Z,1.70
2023-02-19T11:34:50.801Z,2.20
2023-02-19T11:37:18.378Z,2.10
2023-02-19T11:39:46.496Z,1.80
2023-02-19T11:42:15.967Z,2.00
2023-02-19T11:44:50.667Z,2.10
2023-02-19T11:47:32.997Z,1.90
2023-02-19T11:49:59.304Z,1.65
2023-02-19T11:52:44.286Z,1.70
2023-02-19T11:55:10.753Z,1.80
2023-02-19T11:57:45.689Z,1.90
2023-02-19T12:00:17.798Z,1.80
2023-02-19T12:03:02.809Z,1.52
2023-02-19T12:05:35.473Z,1.70
2023-02-19T12:08:20.626Z,1.95
2023-02-19T12:11:03.806Z,1.70
2023-02-19T12:13:30.110Z,1.73
2023-02-19T12:16:04.613Z,1.77
2023-02-19T12:18:43.864Z,1.63
2023-02-19T12:21:10.416Z,1.65
2023-02-19T12:23:55.705Z,1.60
2023-02-19T12:26:24.894Z,1.60
2023-02-19T12:28:57.105Z,1.73
2023-02-19T12:31:42.534Z,1.60
2023-02-19T12:34:08.956Z,1.70
2023-02-19T12:36:53.996Z,1.70
2023-02-19T12:39:23.437Z,1.65
2023-02-19T12:42:00.592Z,1.45
2023-02-19T12:44:36.734Z,1.75
2023-02-19T12:47:06.431Z,1.67
2023-02-19T12:49:44.754Z,1.70
2023-02-19T12:52:18.894Z,1.60
2023-02-19T12:54:46.643Z,1.50
2023-02-19T12:57:19.014Z,1.40
2023-02-19T12:59:48.262Z,1.50
2023-02-19T13:02:14.805Z,1.55
2023-02-19T13:05:01.270Z,1.45
2023-02-19T13:07:44.495Z,1.55
2023-02-19T13:10:10.902Z,1.55
2023-02-19T13:12:39.539Z,1.85
2023-02-19T13:15:13.927Z,1.55
2023-02-19T13:17:57.905Z,1.60
2023-02-19T13:20:32.313Z,1.48
2023-02-19T13:23:35.552Z,1.55
2023-02-19T13:26:20.674Z,1.60
2023-02-19T13:28:59.457Z,1.50
2023-02-19T13:31:26.026Z,1.88
2023-02-19T13:34:04.227Z,1.38
2023-02-19T13:36:30.966Z,1.52
2023-02-19T13:38:59.252Z,1.70
2023-02-19T13:41:33.506Z,1.48
2023-02-19T13:44:01.986Z,1.52
2023-02-19T13:46:36.791Z,1.60
2023-02-19T13:49:26.224Z,1.50
2023-02-19T13:51:54.253Z,1.40
2023-02-19T13:54:30.860Z,1.55
2023-02-19T13:57:15.854Z,4.15
2023-02-19T13:59:42.476Z,1.40
2023-02-19T14:02:10.837Z,1.63
2023-02-19T14:04:50.231Z,1.67
2023-02-19T14:07:16.554Z,2.15
2023-02-19T14:09:43.930Z,1.55
2023-02-19T14:12:10.355Z,1.55
2023-02-19T14:14:39.638Z,1.50
2023-02-19T14:17:09.198Z,1.60
2023-02-19T14:19:41.577Z,1.58
2023-02-19T14:22:26.542Z,1.75
2023-02-19T14:24:53.712Z,1.70
2023-02-19T14:27:20.934Z,2.13
2023-02-19T14:29:47.549Z,1.48
2023-02-19T14:32:19.389Z,1.80
2023-02-19T14:34:46.296Z,1.42
2023-02-19T14:37:18.169Z,1.27
2023-02-19T14:39:44.730Z,1.63
2023-02-19T14:42:19.261Z,1.30
2023-02-19T14:44:51.225Z,1.30
2023-02-19T14:47:19.604Z,1.10
2023-02-19T14:49:46.205Z,1.33
2023-02-19T14:52:24.951Z,1.20
2023-02-19T14:54:54.240Z,1.00
2023-02-19T14:57:25.989Z,1.08
2023-02-19T14:59:59.583Z,1.10
2023-02-19T15:02:27.768Z,1.17
2023-02-19T15:04:54.950Z,1.40
2023-02-19T15:07:23.392Z,1.23
2023-02-19T15:09:54.443Z,1.20
2023-02-19T15:12:25.096Z,1.20
2023-02-19T15:14:53.904Z,1.30
2023-02-19T15:17:27.831Z,1.10
2023-02-19T15:19:55.551Z,1.20
2023-02-19T15:22:24.063Z,1.00
2023-02-19T15:24:50.476Z,1.08
2023-02-19T15:27:21.057Z,1.15
2023-02-19T15:29:48.378Z,0.98
2023-02-19T15:32:19.465Z,1.50
2023-02-19T15:34:56.621Z,1.10
2023-02-19T15:37:24.005Z,1.30
2023-02-19T15:39:51.320Z,1.02
2023-02-19T15:42:28.441Z,1.20
2023-02-19T15:44:57.865Z,1.25
2023-02-19T15:47:29.678Z,1.75
2023-02-19T15:50:16.989Z,2.35
2023-02-19T15:52:45.834Z,1.80
2023-02-19T15:55:12.214Z,1.20
2023-02-19T15:57:42.514Z,1.23
2023-02-19T16:00:19.509Z,1.43
2023-02-19T16:02:46.117Z,1.30
2023-02-19T16:05:13.552Z,1.40
2023-02-19T16:07:39.980Z,1.48
2023-02-19T16:10:06.596Z,1.50
2023-02-19T16:12:33.222Z,1.17
2023-02-19T16:14:59.589Z,1.60
2023-02-19T16:17:28.141Z,0.60
2023-02-19T16:19:59.840Z,0.70
2023-02-19T16:22:35.147Z,0.75
2023-02-19T16:25:03.208Z,0.70
2023-02-19T16:27:35.392Z,0.73
2023-02-19T16:30:08.510Z,0.70
2023-02-19T16:32:35.018Z,0.50
2023-02-19T16:35:01.374Z,0.80
2023-02-19T16:37:30.875Z,0.80
2023-02-19T16:40:17.338Z,0.65
2023-02-19T16:42:49.640Z,0.70
2023-02-19T16:45:16.656Z,0.60
2023-02-19T16:47:48.178Z,1.00
2023-02-19T16:50:16.557Z,0.88
2023-02-19T16:53:02.189Z,0.80
2023-02-19T16:55:29.294Z,0.73
2023-02-19T16:57:55.893Z,1.00
2023-02-19T17:00:23.567Z,0.93
2023-02-19T17:02:51.930Z,0.80
2023-02-19T17:05:19.120Z,0.95
2023-02-19T17:07:45.659Z,10.98
2023-02-19T17:10:25.648Z,2.20
2023-02-19T17:12:52.476Z,1.20
2023-02-19T17:15:19.094Z,1.20
2023-02-19T17:17:45.588Z,0.88
2023-02-19T17:20:21.889Z,1.02
2023-02-19T17:22:48.278Z,1.20
2023-02-19T17:25:14.700Z,3.47
2023-02-19T17:27:41.261Z,2.88
2023-02-19T17:30:17.693Z,2.78
2023-02-19T17:32:44.265Z,2.88
2023-02-19T17:35:10.643Z,2.75
2023-02-19T17:37:37.163Z,2.88
2023-02-19T17:40:03.659Z,2.67
2023-02-19T17:42:30.005Z,3.83
2023-02-19T17:44:56.447Z,4.55
2023-02-19T17:47:22.880Z,2.20
2023-02-19T17:49:49.254Z,1.63
2023-02-19T17:52:17.599Z,2.20
2023-02-19T17:54:44.130Z,2.13
2023-02-19T17:57:10.536Z,3.90
2023-02-19T17:59:37.326Z,3.13
2023-02-19T18:02:03.914Z,3.78
2023-02-19T18:04:30.417Z,1.90
2023-02-19T18:06:56.762Z,2.70
2023-02-19T18:09:23.125Z,3.53
2023-02-19T18:11:49.450Z,3.42
2023-02-19T18:14:15.889Z,2.42
2023-02-19T18:16:49.683Z,2.63
2023-02-19T18:19:16.606Z,2.10
2023-02-19T18:21:42.977Z,2.10
2023-02-19T18:24:09.386Z,2.03
2023-02-19T18:26:35.885Z,2.10
2023-02-19T18:29:02.361Z,2.63
2023-02-19T18:31:31.502Z,2.30
2023-02-19T18:33:57.946Z,2.65
2023-02-19T18:36:24.302Z,3.38
2023-02-19T18:38:50.711Z,1.95
2023-02-19T18:41:20.326Z,1.70
2023-02-19T18:43:47.393Z,1.40
2023-02-19T18:46:13.884Z,1.50
2023-02-19T18:48:40.255Z,1.30
2023-02-19T18:51:09.752Z,1.50
2023-02-19T18:53:36.396Z,1.60
2023-02-19T18:56:05.242Z,2.10
2023-02-19T18:58:31.767Z,4.32
2023-02-19T19:00:59.400Z,1.45
2023-02-19T19:03:25.969Z,1.20
2023-02-19T19:05:52.331Z,1.50
2023-02-19T19:08:18.697Z,1.50
2023-02-19T19:10:45.107Z,1.10
2023-02-19T19:13:11.657Z,1.40
2023-02-19T19:15:40.966Z,1.20
2023-02-19T19:18:08.160Z,1.13
2023-02-19T19:20:34.574Z,1.08
2023-02-19T19:23:00.922Z,1.42
2023-02-19T19:25:27.303Z,1.27
2023-02-19T19:27:56.685Z,1.30
2023-02-19T19:30:23.098Z,1.10
2023-02-19T19:32:50.262Z,1.30
2023-02-19T19:35:20.309Z,1.42
2023-02-19T19:37:47.091Z,1.20
2023-02-19T19:40:13.562Z,1.20
2023-02-19T19:42:40.060Z,0.90
2023-02-19T19:45:06.832Z,0.90
2023-02-19T19:47:33.245Z,0.90
2023-02-19T19:49:59.564Z,1.03
2023-02-19T19:52:25.906Z,1.10
2023-02-19T19:54:54.066Z,1.10
2023-02-19T19:57:20.932Z,0.97
2023-02-19T19:59:51.190Z,1.10
2023-02-19T20:02:18.386Z,1.13
2023-02-19T20:04:44.949Z,1.10
2023-02-19T20:07:11.297Z,1.13
2023-02-19T20:09:37.715Z,1.20
2023-02-19T20:12:04.362Z,1.00
2023-02-19T20:14:30.732Z,1.20
2023-02-19T20:16:57.244Z,35.40
2023-02-19T20:19:23.856Z,2.13
2023-02-19T20:21:53.699Z,1.53
2023-02-19T20:24:24.039Z,1.47
2023-02-19T20:26:51.564Z,5.80
2023-02-19T20:29:17.922Z,1.20
2023-02-19T20:31:48.600Z,1.03
2023-02-19T20:34:15.013Z,1.00
2023-02-19T20:36:48.259Z,1.10
2023-02-19T20:39:15.504Z,0.90
2023-02-19T20:41:46.594Z,1.07
2023-02-19T20:44:13.294Z,0.98
2023-02-19T20:46:43.319Z,1.00
2023-02-19T20:49:09.745Z,0.90
2023-02-19T20:51:43.074Z,1.00
2023-02-19T20:54:09.395Z,0.97
2023-02-19T20:56:35.729Z,1.00
2023-02-19T20:59:02.221Z,0.90
2023-02-19T21:01:28.679Z,1.03
2023-02-19T21:03:55.061Z,0.90
2023-02-19T21:06:22.206Z,1.00
2023-02-19T21:08:48.534Z,1.10
2023-02-19T21:11:14.880Z,0.90
2023-02-19T21:13:42.278Z,0.90
2023-02-19T21:16:08.710Z,0.95
2023-02-19T21:18:35.119Z,0.97
2023-02-19T21:21:01.450Z,1.10
2023-02-19T21:23:27.850Z,1.30
2023-02-19T21:25:54.666Z,1.37
2023-02-19T21:28:21.148Z,1.00
2023-02-19T21:30:47.585Z,1.13
2023-02-19T21:33:14.538Z,1.20
2023-02-19T21:35:40.871Z,1.40
2023-02-19T21:38:07.190Z,1.30
2023-02-19T21:40:34.024Z,1.37
2023-02-19T21:43:00.382Z,1.57
2023-02-19T21:45:26.848Z,1.60
2023-02-19T21:47:54.891Z,1.50
2023-02-19T21:50:21.818Z,1.73
2023-02-19T21:52:48.600Z,1.20
2023-02-19T21:55:15.025Z,1.20
2023-02-19T21:57:41.480Z,1.23
2023-02-19T22:00:08.498Z,0.90
2023-02-19T22:02:34.911Z,1.30
2023-02-19T22:05:02.518Z,1.10
2023-02-19T22:07:30.471Z,1.10
2023-02-19T22:09:56.814Z,1.27
2023-02-19T22:12:23.197Z,1.25
2023-02-19T22:14:49.688Z,1.10
2023-02-19T22:17:16.069Z,1.10
2023-02-19T22:19:42.789Z,1.02
2023-02-19T22:22:09.244Z,1.05
2023-02-19T22:24:35.620Z,1.25
2023-02-19T22:27:02.104Z,1.33
2023-02-19T22:29:28.515Z,1.00
2023-02-19T22:31:54.991Z,1.00
2023-02-19T22:34:21.489Z,1.07
2023-02-19T22:36:48.405Z,0.90
2023-02-19T22:39:16.568Z,1.20
2023-02-19T22:41:43.479Z,1.60
2023-02-19T22:44:10.192Z,1.20
2023-02-19T22:46:36.827Z,1.00
2023-02-19T22:49:04.101Z,1.10
2023-02-19T22:51:30.857Z,1.10
2023-02-19T22:53:57.988Z,1.60
2023-02-19T22:56:26.112Z,1.23
2023-02-19T22:58:53.117Z,1.20
2023-02-19T23:01:19.706Z,1.20
2023-02-19T23:03:46.142Z,1.17
2023-02-19T23:06:13.246Z,1.10
2023-02-19T23:08:39.977Z,1.30
2023-02-19T23:11:06.401Z,1.23
2023-02-19T23:13:32.801Z,1.23
2023-02-19T23:15:59.178Z,2.80
2023-02-19T23:18:25.498Z,1.70
2023-02-19T23:20:51.865Z,1.40
2023-02-19T23:23:18.247Z,1.20
2023-02-19T23:25:44.639Z,1.37
2023-02-19T23:28:11.060Z,1.10
2023-02-19T23:30:37.558Z,1.20
2023-02-19T23:33:03.975Z,1.07
2023-02-19T23:35:31.500Z,1.20
2023-02-19T23:37:57.946Z,1.50
2023-02-19T23:40:24.310Z,1.00
2023-02-19T23:42:50.685Z,1.23
2023-02-19T23:45:17.086Z,1.13
2023-02-19T23:47:43.501Z,1.30
2023-02-19T23:50:10.066Z,1.20
2023-02-19T23:52:36.513Z,1.40
2023-02-19T23:55:02.891Z,1.07
2023-02-19T23:57:29.227Z,1.10
2023-02-19T23:59:55.581Z,1.10
